Time;durP1;ratioP1;P1;durP2;ratioP2;P2;SDS_P1;SDS_P2;PMS_P1;PMS_P2;Temp;Humidity;BMP_temperature;BMP_pressure;BME280_temperature;BME280_humidity;BME280_pressure;Samples;Min_cycle;Max_cycle;Signal;HPM_P1;HPM_P2
2022/12/02 05:14:00;;;;;;;34.05;15.60;;;;;;;0.13;100.00;100996.50;5554399;32;348989;-87
2022/12/02 05:17:03;;;;;;;33.85;16.00;;;;;;;0.10;100.00;100997.38;5545291;32;33788;-91
2022/12/02 05:20:06;;;;;;;35.22;17.02;;;;;;;0.14;100.00;101000.84;5545444;32;33909;-91
2022/12/02 05:23:12;;;;;;;34.25;16.08;;;;;;;0.20;100.00;101013.06;5548391;32;35189;-90
2022/12/02 05:26:15;;;;;;;32.00;15.80;;;;;;;0.25;100.00;101011.34;5545233;32;33732;-88
2022/12/02 05:29:17;;;;;;;32.40;15.80;;;;;;;0.32;100.00;101010.50;5545104;32;33995;-88
2022/12/02 05:32:20;;;;;;;32.83;16.10;;;;;;;0.28;100.00;101013.06;5545639;32;34199;-88
2022/12/02 05:35:23;;;;;;;33.20;16.30;;;;;;;0.31;100.00;101013.09;5545535;32;33877;-87
2022/12/02 05:38:25;;;;;;;28.55;15.18;;;;;;;0.25;100.00;101011.34;5544161;32;32037;-87
2022/12/02 05:41:28;;;;;;;30.12;16.08;;;;;;;0.33;100.00;101008.75;5554012;32;35142;-88
2022/12/02 05:44:32;;;;;;;32.67;16.23;;;;;;;0.30;100.00;101008.75;5555928;32;32962;-87
2022/12/02 05:47:53;;;;;;;30.35;16.35;;;;;;;0.23;100.00;101010.44;5545018;32;34837;-87
2022/12/02 05:50:56;;;;;;;30.75;16.10;;;;;;;0.34;100.00;101006.13;5544967;32;33651;-87
2022/12/02 05:53:59;;;;;;;30.15;15.45;;;;;;;0.38;100.00;101001.81;5544682;32;33909;-88
2022/12/02 05:57:06;;;;;;;30.45;16.00;;;;;;;0.43;100.00;101009.63;5544413;32;33923;-88
2022/12/02 06:00:15;;;;;;;31.92;16.12;;;;;;;0.40;100.00;101005.28;5544553;32;34221;-87
2022/12/02 06:03:19;;;;;;;30.05;15.55;;;;;;;0.36;100.00;101009.63;5554328;32;33716;-87
2022/12/02 06:06:28;;;;;;;34.78;16.83;;;;;;;0.42;100.00;101016.63;5555967;32;33697;-87
2022/12/02 06:09:32;;;;;;;28.83;15.35;;;;;;;0.35;100.00;101017.47;5557497;32;32157;-87
2022/12/02 06:12:35;;;;;;;31.12;17.23;;;;;;;0.38;100.00;101023.56;5550376;32;35153;-87
2022/12/02 06:15:38;;;;;;;31.33;16.05;;;;;;;0.33;100.00;101016.56;5539813;32;34264;-87
2022/12/02 06:18:41;;;;;;;29.37;15.30;;;;;;;0.34;100.00;101020.91;5543460;32;34671;-87
2022/12/02 06:21:44;;;;;;;30.55;15.98;;;;;;;0.46;100.00;101022.72;5544470;32;34362;-86
2022/12/02 06:24:46;;;;;;;34.47;16.92;;;;;;;0.43;100.00;101020.97;5534781;32;32851;-86
2022/12/02 06:27:51;;;;;;;29.87;16.25;;;;;;;0.43;100.00;101030.50;5538018;32;34640;-87
2022/12/02 06:31:00;;;;;;;30.80;16.15;;;;;;;0.43;100.00;101028.78;5544425;32;33851;-87
2022/12/02 06:34:26;;;;;;;30.62;16.37;;;;;;;0.39;100.00;101033.13;5531120;32;34181;-87
2022/12/02 06:37:32;;;;;;;33.78;15.73;;;;;;;0.48;100.00;101037.50;5530926;32;34266;-87
2022/12/02 06:40:36;;;;;;;30.27;16.45;;;;;;;0.50;100.00;101035.75;5542954;32;34033;-87
2022/12/02 06:43:38;;;;;;;30.12;16.40;;;;;;;0.63;100.00;101039.28;5537417;32;34313;-87
2022/12/02 06:46:42;;;;;;;29.50;15.95;;;;;;;0.59;100.00;101047.97;5533903;32;32872;-87
2022/12/02 06:49:45;;;;;;;31.00;16.33;;;;;;;0.60;100.00;101038.41;5582507;32;35266;-90
2022/12/02 06:52:48;;;;;;;32.83;16.55;;;;;;;0.63;100.00;101043.63;5558898;32;34944;-92
2022/12/02 06:56:00;;;;;;;32.90;16.80;;;;;;;0.66;100.00;101041.03;5569929;32;34004;-91
2022/12/02 06:59:05;;;;;;;35.20;16.92;;;;;;;0.70;100.00;101049.75;5548455;32;34623;-89
2022/12/02 07:02:24;;;;;;;32.13;16.40;;;;;;;0.67;100.00;101042.78;5560516;32;34586;-87
2022/12/02 07:05:27;;;;;;;34.28;17.80;;;;;;;0.74;100.00;101038.41;5553437;32;33088;-89
2022/12/02 07:08:30;;;;;;;32.05;16.52;;;;;;;0.74;100.00;101044.53;5569364;32;34239;-89
2022/12/02 07:11:54;;;;;;;32.30;17.42;;;;;;;0.72;100.00;101048.00;5555225;31;32405;-89
2022/12/02 07:15:01;;;;;;;35.60;17.40;;;;;;;0.70;100.00;101050.59;5550264;32;33443;-89
2022/12/02 07:18:17;;;;;;;30.92;16.40;;;;;;;0.62;100.00;101050.59;5551240;32;33978;-89
2022/12/02 07:21:20;;;;;;;31.87;17.10;;;;;;;0.72;100.00;101053.22;5539843;32;34272;-88
2022/12/02 07:24:24;;;;;;;33.55;17.45;;;;;;;0.75;100.00;101050.63;5549617;32;32671;-88
2022/12/02 07:27:30;;;;;;;31.02;16.52;;;;;;;0.87;100.00;101055.88;5543551;32;33920;-88
2022/12/02 07:30:40;;;;;;;35.50;17.00;;;;;;;0.82;100.00;101054.13;5548638;32;33728;-88
2022/12/02 07:33:43;;;;;;;32.22;16.30;;;;;;;0.86;100.00;101061.94;5557406;32;33870;-88
2022/12/02 07:36:46;;;;;;;31.77;16.42;;;;;;;1.00;100.00;101064.59;5520620;32;33313;-88
2022/12/02 07:39:48;;;;;;;31.98;16.55;;;;;;;1.12;100.00;101062.84;5548764;32;34011;-88
2022/12/02 07:42:51;;;;;;;35.00;17.17;;;;;;;1.21;100.00;101061.13;5549187;32;33821;-87
2022/12/02 07:45:54;;;;;;;33.83;17.35;;;;;;;1.28;100.00;101064.63;5538314;32;34449;-88
2022/12/02 07:48:56;;;;;;;34.40;17.08;;;;;;;1.26;100.00;101065.47;5560802;32;34175;-89
2022/12/02 07:52:00;;;;;;;32.70;17.08;;;;;;;1.19;100.00;101068.09;5545393;32;34404;-88
2022/12/02 07:55:03;;;;;;;31.95;17.35;;;;;;;1.36;100.00;101067.22;5548234;32;33909;-88
2022/12/02 07:58:06;;;;;;;34.92;16.65;;;;;;;1.56;100.00;101072.44;5546273;32;34749;-89
2022/12/02 08:01:08;;;;;;;30.60;16.00;;;;;;;1.40;100.00;101068.09;5535248;32;33896;-88
2022/12/02 08:04:17;;;;;;;34.63;17.30;;;;;;;1.54;100.00;101076.78;5543858;32;33989;-89
2022/12/02 08:07:20;;;;;;;33.17;17.52;;;;;;;1.32;100.00;101068.09;5536448;32;34941;-88
2022/12/02 08:10:23;;;;;;;34.17;17.10;;;;;;;1.45;100.00;101063.72;5546682;32;34674;-86
2022/12/02 08:13:25;;;;;;;34.60;17.60;;;;;;;1.67;100.00;101067.19;5529618;32;33226;-90
2022/12/02 08:16:28;;;;;;;38.28;18.30;;;;;;;1.71;100.00;101073.28;5538236;32;33624;-89
2022/12/02 08:19:31;;;;;;;33.28;16.67;;;;;;;1.47;100.00;101072.44;5551332;32;33414;-88
2022/12/02 08:22:34;;;;;;;35.13;18.35;;;;;;;1.77;100.00;101075.91;5558967;32;34201;-87
2022/12/02 08:25:37;;;;;;;31.92;16.67;;;;;;;1.96;100.00;101073.25;5567708;32;35107;-88
2022/12/02 08:28:40;;;;;;;34.35;18.17;;;;;;;2.23;100.00;101074.00;5552633;32;35168;-87
2022/12/02 08:31:43;;;;;;;36.40;18.73;;;;;;;2.40;100.00;101069.59;5545212;32;34245;-87
2022/12/02 08:34:46;;;;;;;37.88;18.12;;;;;;;2.49;100.00;101073.03;5533053;32;34018;-87
2022/12/02 08:37:48;;;;;;;33.15;17.67;;;;;;;2.56;100.00;101073.00;5533125;32;33841;-86
2022/12/02 08:40:51;;;;;;;32.13;17.87;;;;;;;2.50;100.00;101069.53;5541992;32;33874;-88
2022/12/02 08:43:54;;;;;;;35.22;17.90;;;;;;;2.57;100.00;101079.12;5534323;32;34540;-87
2022/12/02 08:46:57;;;;;;;36.45;17.33;;;;;;;2.51;100.00;101073.91;5545086;32;34376;-88
2022/12/02 08:49:59;;;;;;;32.47;17.40;;;;;;;2.78;100.00;101078.13;5547780;32;33824;-87
2022/12/02 08:53:02;;;;;;;35.30;18.80;;;;;;;2.97;100.00;101078.00;5541460;32;34586;-87
2022/12/02 08:56:05;;;;;;;37.33;18.48;;;;;;;2.72;100.00;101080.78;5523881;32;33140;-88
2022/12/02 08:59:08;;;;;;;32.83;17.50;;;;;;;2.81;100.00;101083.34;5524404;32;34094;-88
2022/12/02 09:02:11;;;;;;;31.58;17.92;;;;;;;2.85;100.00;101080.72;5538785;32;33655;-88
2022/12/02 09:05:14;;;;;;;31.75;17.12;;;;;;;3.00;100.00;101080.59;5545529;32;35219;-88
2022/12/02 09:08:17;;;;;;;32.08;17.10;;;;;;;2.92;100.00;101080.63;5544533;32;34616;-86
2022/12/02 09:11:19;;;;;;;32.95;18.33;;;;;;;3.00;100.00;101077.09;5564342;31;34884;-88
2022/12/02 09:14:22;;;;;;;33.88;17.40;;;;;;;2.70;100.00;101077.28;5554257;32;34699;-85
2022/12/02 09:17:25;;;;;;;36.95;18.12;;;;;;;2.76;100.00;101074.63;5547379;32;33336;-85
2022/12/02 09:20:27;;;;;;;32.90;18.08;;;;;;;2.63;100.00;101079.09;5541346;32;34264;-85
2022/12/02 09:23:30;;;;;;;30.33;18.52;;;;;;;2.40;100.00;101076.56;5536199;32;34587;-86
2022/12/02 09:26:33;;;;;;;39.45;18.67;;;;;;;2.25;100.00;101082.72;5538159;32;33626;-85
2022/12/02 09:29:36;;;;;;;37.33;18.87;;;;;;;2.23;100.00;101077.50;5550256;32;34610;-85
2022/12/02 09:32:39;;;;;;;33.38;17.62;;;;;;;2.55;100.00;101076.50;5556054;32;33982;-85
2022/12/02 09:35:42;;;;;;;35.40;18.45;;;;;;;2.61;100.00;101070.34;5539457;32;33842;-85
2022/12/02 09:38:44;;;;;;;37.63;18.35;;;;;;;2.68;100.00;101072.03;5532446;32;34156;-86
2022/12/02 09:41:47;;;;;;;34.38;18.05;;;;;;;2.77;100.00;101072.88;5545546;32;32401;-87
2022/12/02 09:44:50;;;;;;;31.30;17.12;;;;;;;2.67;100.00;101070.31;5548158;32;33596;-87
2022/12/02 09:47:54;;;;;;;32.30;16.52;;;;;;;2.59;100.00;101069.50;5538971;32;35209;-87
2022/12/02 09:50:58;;;;;;;31.42;16.65;;;;;;;2.61;100.00;101070.34;5548328;32;34681;-87
2022/12/02 09:54:02;;;;;;;31.00;16.42;;;;;;;2.57;100.00;101066.03;5530890;32;35093;-86
2022/12/02 09:57:10;;;;;;;28.60;15.85;;;;;;;2.68;100.00;101073.81;5517013;32;33021;-85
2022/12/02 10:00:16;;;;;;;30.50;16.15;;;;;;;2.69;100.00;101068.56;5549629;32;34023;-86
2022/12/02 10:03:27;;;;;;;30.42;16.50;;;;;;;2.78;100.00;101064.16;5550323;32;35159;-86
2022/12/02 10:06:30;;;;;;;33.30;16.58;;;;;;;2.94;100.00;101060.56;5545206;32;35485;-85
2022/12/02 10:09:33;;;;;;;33.85;17.33;;;;;;;2.95;100.00;101062.28;5531683;32;33526;-86
2022/12/02 10:12:36;;;;;;;30.60;17.00;;;;;;;3.17;100.00;101061.25;5563790;32;34040;-86
2022/12/02 10:15:39;;;;;;;32.65;16.50;;;;;;;2.86;100.00;101056.25;5552217;32;34144;-86
2022/12/02 10:18:42;;;;;;;31.35;16.40;;;;;;;3.01;100.00;101060.50;5534873;32;32875;-85
2022/12/02 10:21:45;;;;;;;34.53;16.67;;;;;;;3.18;100.00;101055.97;5540349;32;33648;-85
2022/12/02 10:24:48;;;;;;;31.33;16.27;;;;;;;3.39;100.00;101059.31;5561227;32;33703;-85
2022/12/02 10:27:51;;;;;;;29.27;16.27;;;;;;;3.52;100.00;101057.44;5542793;32;33968;-85
2022/12/02 10:31:18;;;;;;;30.98;16.15;;;;;;;3.78;100.00;101061.59;5538346;32;34788;-89
2022/12/02 10:34:22;;;;;;;33.63;17.35;;;;;;;4.31;100.00;101053.97;5547422;32;34979;-85
2022/12/02 10:37:26;;;;;;;30.20;16.45;;;;;;;4.21;100.00;101049.72;5555802;32;35064;-86
2022/12/02 10:40:29;;;;;;;32.47;16.65;;;;;;;4.22;100.00;101053.22;5554938;32;33655;-85
2022/12/02 10:43:32;;;;;;;40.67;17.70;;;;;;;4.19;100.00;101051.50;5552685;32;34223;-85
2022/12/02 10:46:35;;;;;;;29.73;15.10;;;;;;;4.11;100.00;101048.06;5560835;32;34390;-85
2022/12/02 10:49:43;;;;;;;34.30;17.08;;;;;;;4.15;100.00;101048.03;5555295;32;34400;-85
2022/12/02 10:52:49;;;;;;;31.55;15.73;;;;;;;3.84;100.00;101047.50;5548802;32;34164;-86
2022/12/02 10:55:51;;;;;;;30.67;17.05;;;;;;;3.55;100.00;101046.03;5574112;32;34158;-86
2022/12/02 10:58:55;;;;;;;29.75;16.17;;;;;;;3.14;100.00;101040.28;5554829;32;33949;-86
2022/12/02 11:01:58;;;;;;;30.12;16.65;;;;;;;2.92;100.00;101043.94;5534845;32;34907;-87
2022/12/02 11:05:14;;;;;;;31.67;16.17;;;;;;;3.01;100.00;101039.53;5535456;32;33017;-86
2022/12/02 11:08:27;;;;;;;31.77;16.80;;;;;;;3.33;100.00;101035.78;5552581;32;34189;-87
2022/12/02 11:11:30;;;;;;;29.58;15.88;;;;;;;3.18;100.00;101044.63;5555776;31;34696;-87
2022/12/02 11:14:39;;;;;;;31.58;16.75;;;;;;;3.20;100.00;101043.75;5542119;32;33335;-87
2022/12/02 11:17:50;;;;;;;32.97;17.27;;;;;;;3.15;100.00;101029.81;5534374;32;33913;-87
2022/12/02 11:21:12;;;;;;;31.85;16.83;;;;;;;3.36;100.00;101035.72;5535956;32;32595;-87
2022/12/02 11:24:21;;;;;;;30.98;16.60;;;;;;;3.37;100.00;101032.25;5542569;32;34282;-87
2022/12/02 11:27:24;;;;;;;31.60;16.23;;;;;;;3.42;100.00;101030.44;5550258;32;34102;-87
2022/12/02 11:30:27;;;;;;;34.88;17.70;;;;;;;3.50;100.00;101030.34;5546767;32;33858;-86
2022/12/02 11:33:48;;;;;;;29.20;17.00;;;;;;;3.60;100.00;101031.13;5552278;32;34620;-86
2022/12/02 11:37:25;;;;;;;34.38;17.55;;;;;;;3.53;100.00;101032.97;5556504;32;33907;-88
2022/12/02 11:40:31;;;;;;;30.15;16.70;;;;;;;3.59;100.00;101022.41;5540131;32;34068;-86
2022/12/02 11:44:08;;;;;;;34.88;17.65;;;;;;;3.44;100.00;101033.03;5545163;32;33605;-87
2022/12/02 11:47:54;;;;;;;34.20;17.27;;;;;;;3.47;100.00;101030.41;5509649;32;33893;-87
2022/12/02 11:50:57;;;;;;;31.08;16.95;;;;;;;3.11;100.00;101028.06;5517405;32;33636;-87
2022/12/02 11:54:00;;;;;;;32.35;18.20;;;;;;;3.42;100.00;101022.56;5551909;32;34155;-87
2022/12/02 11:57:04;;;;;;;31.85;17.30;;;;;;;3.58;100.00;101018.03;5561250;32;35033;-88
2022/12/02 12:00:25;;;;;;;33.15;17.73;;;;;;;3.73;100.00;101014.38;5557688;32;34840;-87
2022/12/02 12:03:28;;;;;;;32.33;16.90;;;;;;;3.58;100.00;101014.53;5552194;32;34422;-87
2022/12/02 12:06:34;;;;;;;31.65;18.23;;;;;;;3.27;100.00;101015.69;5552552;32;34737;-87
2022/12/02 12:09:37;;;;;;;29.17;16.70;;;;;;;3.54;100.00;101016.34;5549398;32;34198;-91
2022/12/02 12:13:12;;;;;;;31.35;16.95;;;;;;;3.51;100.00;101018.97;5554240;32;33986;-92
2022/12/02 12:16:22;;;;;;;32.10;17.58;;;;;;;3.67;100.00;101016.22;5568200;32;34964;-88
2022/12/02 12:19:25;;;;;;;31.92;16.80;;;;;;;3.67;100.00;101018.84;5551259;32;34175;-87
2022/12/02 12:22:30;;;;;;;33.72;17.05;;;;;;;3.55;100.00;101018.06;5548744;32;34182;-88
2022/12/02 12:25:43;;;;;;;36.13;18.58;;;;;;;3.63;100.00;101015.38;5556661;32;32735;-87
2022/12/02 12:28:45;;;;;;;33.97;17.73;;;;;;;3.68;100.00;101013.56;5555564;32;34076;-87
2022/12/02 12:31:48;;;;;;;33.58;17.85;;;;;;;3.64;100.00;101017.09;5556229;32;34012;-88
2022/12/02 12:34:51;;;;;;;33.83;18.12;;;;;;;3.43;100.00;101026.06;5537293;32;35081;-87
2022/12/02 12:37:54;;;;;;;30.90;17.90;;;;;;;3.47;100.00;101022.53;5530870;32;32788;-88
2022/12/02 12:40:57;;;;;;;35.97;18.90;;;;;;;3.37;100.00;101016.50;5525242;32;34869;-88
2022/12/02 12:43:59;;;;;;;37.53;18.23;;;;;;;3.37;100.00;101019.13;5535272;32;33628;-88
2022/12/02 12:47:04;;;;;;;33.65;17.95;;;;;;;3.13;100.00;101015.84;5560657;32;35268;-87
2022/12/02 12:50:08;;;;;;;34.30;17.58;;;;;;;3.31;100.00;101017.41;5529398;32;33191;-87
2022/12/02 12:53:11;;;;;;;34.80;18.60;;;;;;;3.29;100.00;101013.94;5533985;32;32701;-88
2022/12/02 12:56:14;;;;;;;33.20;18.25;;;;;;;3.23;100.00;101011.38;5541055;32;34076;-87
2022/12/02 12:59:16;;;;;;;34.33;18.15;;;;;;;3.18;100.00;101011.41;5540630;32;33132;-87
2022/12/02 13:02:19;;;;;;;35.58;17.80;;;;;;;3.31;100.00;101016.53;5540137;32;33378;-87
2022/12/02 13:05:22;;;;;;;33.13;17.73;;;;;;;3.20;100.00;101009.66;5535221;32;34043;-87
2022/12/02 13:08:25;;;;;;;28.80;16.33;;;;;;;3.21;100.00;101010.50;5537843;32;33818;-87
2022/12/02 13:11:28;;;;;;;31.02;16.67;;;;;;;3.06;100.00;101017.63;5530806;32;33384;-87
2022/12/02 13:14:30;;;;;;;30.77;17.35;;;;;;;3.02;100.00;101015.06;5530763;32;34363;-87
2022/12/02 13:17:33;;;;;;;31.12;17.10;;;;;;;3.06;100.00;101014.13;5529710;32;34074;-87
2022/12/02 13:20:36;;;;;;;31.02;16.77;;;;;;;3.07;100.00;101014.13;5543500;32;34083;-87
2022/12/02 13:23:39;;;;;;;30.62;17.10;;;;;;;3.00;100.00;101012.44;5534707;32;32994;-88
2022/12/02 13:26:42;;;;;;;31.05;17.20;;;;;;;2.96;100.00;101013.34;5549965;32;34531;-87
2022/12/02 13:29:44;;;;;;;30.65;16.92;;;;;;;2.92;100.00;101009.87;5547774;32;33800;-87
2022/12/02 13:32:51;;;;;;;30.42;16.45;;;;;;;2.78;100.00;101010.00;5539481;32;34005;-87
2022/12/02 13:35:54;;;;;;;35.95;17.92;;;;;;;2.81;100.00;101012.59;5534293;32;34417;-87
2022/12/02 13:38:56;;;;;;;33.17;16.98;;;;;;;2.78;100.00;101017.88;5518141;32;33554;-89
2022/12/02 13:42:07;;;;;;;32.55;17.52;;;;;;;2.73;100.00;101022.25;5537236;32;35108;-87
2022/12/02 13:45:11;;;;;;;31.62;17.35;;;;;;;2.84;100.00;101027.41;5537368;32;35166;-87
2022/12/02 13:48:14;;;;;;;32.47;18.08;;;;;;;2.68;100.00;101029.28;5522758;32;34921;-87
2022/12/02 13:51:17;;;;;;;34.25;17.83;;;;;;;2.52;100.00;101036.34;5582203;26;34924;-89
2022/12/02 13:54:20;;;;;;;33.72;17.25;;;;;;;2.54;100.00;101021.50;5561172;32;34143;-90
2022/12/02 13:57:23;;;;;;;35.08;18.73;;;;;;;2.42;100.00;101041.63;5575932;32;34272;-87
2022/12/02 14:00:26;;;;;;;37.22;18.48;;;;;;;2.49;100.00;101041.59;5577534;26;32684;-87
2022/12/02 14:03:29;;;;;;;34.85;17.80;;;;;;;2.40;100.00;101043.41;5530019;32;32232;-87
2022/12/02 14:06:32;;;;;;;35.72;18.77;;;;;;;2.36;100.00;101038.19;5518361;32;33635;-87
2022/12/02 14:09:35;;;;;;;37.40;18.87;;;;;;;2.46;100.00;101044.25;5527014;32;34298;-86
2022/12/02 14:12:37;;;;;;;37.10;19.15;;;;;;;2.24;100.00;101033.87;5535225;32;34988;-86
2022/12/02 14:15:40;;;;;;;38.47;18.52;;;;;;;2.22;100.00;101031.25;5542642;32;34741;-86
2022/12/02 14:18:43;;;;;;;38.67;19.90;;;;;;;2.24;100.00;101041.72;5515547;32;32879;-86
2022/12/02 14:21:48;;;;;;;38.13;18.05;;;;;;;2.23;100.00;101038.25;5500421;32;33249;-87
2022/12/02 14:24:50;;;;;;;35.10;18.77;;;;;;;2.20;100.00;101038.25;5513918;32;33823;-87
2022/12/02 14:27:54;;;;;;;36.83;19.52;;;;;;;2.21;100.00;101045.22;5532324;32;33831;-86
2022/12/02 14:30:56;;;;;;;38.25;19.37;;;;;;;2.30;100.00;101041.69;5530491;32;32930;-86
2022/12/02 14:33:59;;;;;;;39.13;20.40;;;;;;;2.02;100.00;101047.91;5522420;32;34079;-86
2022/12/02 14:37:17;;;;;;;38.97;19.87;;;;;;;2.09;100.00;101046.16;5515734;32;32189;-86
2022/12/02 14:40:20;;;;;;;39.50;19.08;;;;;;;1.97;100.00;101043.56;5518687;32;32698;-87
2022/12/02 14:43:23;;;;;;;37.78;19.15;;;;;;;1.98;100.00;101061.91;5516631;32;34142;-86
2022/12/02 14:46:28;;;;;;;37.13;20.23;;;;;;;2.01;100.00;101051.41;5520188;32;35207;-85
2022/12/02 14:49:31;;;;;;;37.90;19.65;;;;;;;1.94;100.00;101049.69;5524353;32;33841;-86
2022/12/02 14:52:43;;;;;;;39.10;20.30;;;;;;;1.92;100.00;101053.19;5518543;32;34242;-86
2022/12/02 14:55:46;;;;;;;35.65;19.92;;;;;;;1.91;100.00;101051.44;5521960;32;34186;-86
2022/12/02 14:58:49;;;;;;;39.15;20.52;;;;;;;1.88;100.00;101054.94;5540898;32;34285;-86
2022/12/02 15:01:52;;;;;;;40.35;21.02;;;;;;;1.85;100.00;101044.47;5520186;32;32380;-86
2022/12/02 15:04:55;;;;;;;46.50;22.37;;;;;;;1.77;100.00;101048.84;5519961;32;32383;-86
2022/12/02 15:07:57;;;;;;;40.10;20.48;;;;;;;1.70;100.00;101051.47;5534952;32;35165;-86
2022/12/02 15:11:00;;;;;;;41.70;22.00;;;;;;;1.68;100.00;101055.84;5532792;32;33295;-87
2022/12/02 15:14:03;;;;;;;41.40;20.37;;;;;;;1.65;100.00;101057.63;5535076;32;34914;-87
2022/12/02 15:17:06;;;;;;;44.30;21.55;;;;;;;1.72;100.00;101067.19;5531664;32;35644;-86
2022/12/02 15:20:09;;;;;;;45.30;21.85;;;;;;;1.59;100.00;101066.31;5530914;32;34080;-86
2022/12/02 15:23:12;;;;;;;54.13;21.98;;;;;;;1.68;100.00;101066.31;5532846;32;33879;-86
2022/12/02 15:26:15;;;;;;;42.33;21.50;;;;;;;1.56;100.00;101069.81;5529323;32;34235;-85
2022/12/02 15:29:18;;;;;;;43.35;21.62;;;;;;;1.65;100.00;101073.31;5531351;32;34042;-89
2022/12/02 15:32:20;;;;;;;44.33;21.08;;;;;;;1.62;100.00;101080.25;5531346;32;33863;-89
2022/12/02 15:35:23;;;;;;;40.55;21.67;;;;;;;1.55;100.00;101078.53;5531613;32;33934;-88
2022/12/02 15:38:26;;;;;;;42.55;21.95;;;;;;;1.54;100.00;101075.91;5516852;32;32718;-89
2022/12/02 15:41:31;;;;;;;42.85;22.37;;;;;;;1.53;100.00;101074.19;5530810;32;34059;-88
2022/12/02 15:44:34;;;;;;;46.22;22.00;;;;;;;1.51;100.00;101081.16;5529789;32;35010;-88
2022/12/02 15:47:36;;;;;;;46.95;22.02;;;;;;;1.53;100.00;101084.63;5517423;32;32283;-88
2022/12/02 15:50:39;;;;;;;45.33;21.98;;;;;;;1.65;100.00;101087.22;5529525;32;33916;-88
2022/12/02 15:53:44;;;;;;;42.28;21.73;;;;;;;1.66;100.00;101082.88;5529598;32;34152;-87
2022/12/02 15:56:47;;;;;;;45.60;21.80;;;;;;;1.53;100.00;101084.63;5516067;32;32610;-91
2022/12/02 15:59:56;;;;;;;43.15;21.87;;;;;;;1.61;100.00;101086.38;5530773;32;34019;-88
2022/12/02 16:02:58;;;;;;;46.90;22.42;;;;;;;1.60;100.00;101092.47;5517578;32;33930;-89
2022/12/02 16:06:01;;;;;;;42.62;22.27;;;;;;;1.60;100.00;101091.59;5537616;32;33844;-88
2022/12/02 16:09:04;;;;;;;48.17;22.42;;;;;;;1.52;100.00;101091.63;5540057;32;34379;-88
2022/12/02 16:12:07;;;;;;;43.55;22.27;;;;;;;1.43;100.00;101096.84;5540123;32;34004;-88
2022/12/02 16:15:09;;;;;;;43.42;22.00;;;;;;;1.54;100.00;101094.22;5530595;32;34276;-88
2022/12/02 16:18:12;;;;;;;46.75;22.50;;;;;;;1.46;100.00;101094.25;5536591;32;33982;-88
2022/12/02 16:21:16;;;;;;;41.28;22.17;;;;;;;1.42;100.00;101089.88;5520243;32;35111;-88
2022/12/02 16:24:19;;;;;;;42.78;22.27;;;;;;;1.41;100.00;101099.44;5530811;32;34656;-88
2022/12/02 16:27:21;;;;;;;47.70;23.70;;;;;;;1.51;100.00;101099.47;5530401;32;33961;-88
2022/12/02 16:30:24;;;;;;;44.50;22.37;;;;;;;1.46;100.00;101099.47;5529759;32;33971;-88
2022/12/02 16:33:27;;;;;;;50.97;24.95;;;;;;;1.69;100.00;101106.41;5516550;32;33182;-88
2022/12/02 16:36:30;;;;;;;46.55;23.73;;;;;;;1.41;100.00;101107.28;5517096;32;33286;-88
